Terminal Aerodrome Forecast
Issued by NWS

Home | Current Version | Previous Version | Text Only | Print | Product List | Glossary On
Versions: 1 2 3 4 5 6 7 8 9 10 11 12 13 14 15 16 17
752
FTUS44 KTSA 281127
TAFRVS
TAF
KRVS 281127Z 2812/2912 13010G19KT P6SM BKN110
     FM281300 14011KT P6SM BKN020
     FM281800 16008KT P6SM SCT035 BKN150
     FM290200 04005KT P6SM VCTS BKN040CB
      TEMPO 2906/2910 2SM TSRA BR BKN020CB
     FM291000 03010KT 4SM -TSRA OVC015CB=

USA.gov is the U.S. government's official web portal to all federal, state and local government web resources and services.